Time;durP1;ratioP1;P1;durP2;ratioP2;P2;SDS_P1;SDS_P2;PMS_P1;PMS_P2;Temp;Humidity;BMP_temperature;BMP_pressure;BME280_temperature;BME280_humidity;BME280_pressure;Samples;Min_cycle;Max_cycle;Signal;HPM_P1;HPM_P2
2023/01/20 00:01:18;;;;;;;;;33.75;29.50;;;;;4.95;66.44;100811.44;5059178;28;45346;-56
2023/01/20 00:03:44;;;;;;;;;35.25;30.00;;;;;4.97;66.38;100815.78;5058858;28;47173;-57
2023/01/20 00:06:10;;;;;;;;;29.00;25.25;;;;;4.96;66.81;100815.78;5060412;28;45217;-56
2023/01/20 00:08:36;;;;;;;;;32.75;28.00;;;;;4.98;66.63;100824.47;5060758;28;46541;-57
2023/01/20 00:11:09;;;;;;;;;27.00;22.75;;;;;4.98;66.38;100819.25;5060360;28;45288;-57
2023/01/20 00:13:35;;;;;;;;;29.75;28.50;;;;;4.95;66.41;100814.03;5060457;28;46423;-56
2023/01/20 00:16:05;;;;;;;;;36.00;30.00;;;;;4.98;66.32;100829.69;5060306;28;45351;-57
2023/01/20 00:18:31;;;;;;;;;29.75;26.50;;;;;5.01;66.36;100829.72;5060445;28;45220;-56
2023/01/20 00:21:02;;;;;;;;;28.75;24.25;;;;;5.01;66.06;100834.94;5060114;28;45228;-57
2023/01/20 00:23:27;;;;;;;;;32.75;29.75;;;;;5.00;66.44;100839.25;5060400;28;46241;-56
2023/01/20 00:25:52;;;;;;;;;34.00;29.50;;;;;4.98;66.16;100838.38;5060200;28;45310;-57
2023/01/20 00:28:18;;;;;;;;;34.75;25.50;;;;;5.01;66.44;100848.81;5067749;28;45310;-57
2023/01/20 00:30:43;;;;;;;;;32.75;27.75;;;;;5.01;66.36;100855.78;5060081;28;45442;-57
2023/01/20 00:33:08;;;;;;;;;33.00;26.75;;;;;5.01;66.41;100850.56;5060016;28;46149;-57
2023/01/20 00:35:36;;;;;;;;;34.00;27.50;;;;;5.02;66.62;100852.31;5060250;28;45301;-57
2023/01/20 00:38:01;;;;;;;;;36.25;28.50;;;;;5.02;66.44;100861.00;5059158;28;45339;-57
2023/01/20 00:40:26;;;;;;;;;28.75;24.25;;;;;5.00;66.78;100861.84;5059864;28;45509;-57
2023/01/20 00:42:52;;;;;;;;;25.75;21.50;;;;;5.00;66.57;100867.03;5060030;28;46023;-57
2023/01/20 00:45:17;;;;;;;;;25.00;23.00;;;;;4.97;66.58;100867.00;5059976;28;45149;-57
2023/01/20 00:47:42;;;;;;;;;25.00;21.50;;;;;4.95;66.26;100869.59;5060086;28;45369;-57
2023/01/20 00:50:08;;;;;;;;;32.25;27.25;;;;;4.94;66.16;100878.25;5059882;28;45511;-57
2023/01/20 00:52:34;;;;;;;;;44.25;35.50;;;;;4.94;66.29;100880.00;5059900;28;45250;-57
2023/01/20 00:54:59;;;;;;;;;42.00;31.75;;;;;4.92;66.16;100877.38;5059833;28;45212;-56
2023/01/20 00:57:24;;;;;;;;;48.00;39.00;;;;;4.93;66.05;100875.63;5060016;28;45254;-57
2023/01/20 00:59:49;;;;;;;;;50.50;39.00;;;;;4.93;66.27;100883.44;5059684;28;45325;-57
2023/01/20 01:02:15;;;;;;;;;51.75;40.75;;;;;4.93;66.19;100889.56;5059819;28;46148;-57
2023/01/20 01:04:40;;;;;;;;;40.00;34.25;;;;;4.92;66.28;100884.31;5059378;28;46518;-57
2023/01/20 01:07:05;;;;;;;;;50.00;40.25;;;;;4.93;66.08;100896.47;5058760;28;45347;-57
2023/01/20 01:09:31;;;;;;;;;43.50;38.25;;;;;4.93;66.25;100891.25;5059683;28;45294;-57
2023/01/20 01:11:56;;;;;;;;;42.75;33.25;;;;;4.91;66.10;100893.84;5059064;28;46002;-57
2023/01/20 01:14:22;;;;;;;;;43.75;39.00;;;;;4.94;66.28;100906.03;5058238;28;45343;-56
2023/01/20 01:16:47;;;;;;;;;48.75;39.25;;;;;4.91;66.29;100893.00;5059800;28;45343;-57
2023/01/20 01:19:12;;;;;;;;;43.50;36.00;;;;;4.94;66.17;100909.50;5059306;28;45442;-57
2023/01/20 01:21:38;;;;;;;;;41.50;34.00;;;;;4.95;66.15;100910.41;5059579;28;46671;-57
2023/01/20 01:24:03;;;;;;;;;34.50;31.50;;;;;4.93;66.13;100904.28;5059524;28;45323;-57
2023/01/20 01:26:29;;;;;;;;;37.25;28.25;;;;;4.95;66.39;100907.78;5062256;28;45303;-57
2023/01/20 01:28:54;;;;;;;;;28.00;26.50;;;;;4.96;66.13;100919.97;5064230;28;45322;-57
2023/01/20 01:31:20;;;;;;;;;31.50;26.25;;;;;4.95;66.15;100923.41;5059494;28;45311;-57
2023/01/20 01:33:47;;;;;;;;;27.50;21.50;;;;;4.94;66.38;100925.13;5059213;28;45176;-57
2023/01/20 01:36:14;;;;;;;;;24.75;23.25;;;;;4.94;66.07;100930.34;5058540;28;45537;-57
2023/01/20 01:38:40;;;;;;;;;30.75;23.00;;;;;4.92;66.41;100928.56;5059415;28;45259;-58
2023/01/20 01:41:05;;;;;;;;;27.25;23.00;;;;;4.93;66.00;100927.72;5058982;28;46405;-57
2023/01/20 01:43:36;;;;;;;;;28.00;26.00;;;;;4.88;66.04;100920.75;5059249;28;45444;-57
2023/01/20 01:46:02;;;;;;;;;26.75;20.25;;;;;4.90;65.92;100935.53;5059504;28;45273;-57
2023/01/20 01:48:46;;;;;;;;;24.50;20.50;;;;;4.85;66.02;100933.72;5058993;28;45626;-58
2023/01/20 01:51:21;;;;;;;;;20.50;19.00;;;;;4.82;66.17;100931.06;5061022;28;46118;-57
2023/01/20 01:53:52;;;;;;;;;33.50;23.75;;;;;4.81;65.84;100941.47;5062861;28;45344;-57
2023/01/20 01:56:19;;;;;;;;;30.75;21.75;;;;;4.75;66.12;100951.81;5062433;28;45330;-57
2023/01/20 01:58:50;;;;;;;;;28.50;24.25;;;;;4.77;66.10;100968.31;5062748;28;45536;-57
2023/01/20 02:01:16;;;;;;;;;28.25;24.25;;;;;4.75;65.80;100972.66;5062418;28;45504;-57
2023/01/20 02:03:55;;;;;;;;;24.50;19.50;;;;;4.71;65.74;100975.19;5062183;28;45336;-57
2023/01/20 02:06:23;;;;;;;;;24.25;22.25;;;;;4.70;66.08;100972.56;5062459;28;45343;-57
2023/01/20 02:08:50;;;;;;;;;23.00;22.50;;;;;4.68;65.97;100976.91;5062748;28;45401;-57
2023/01/20 02:11:15;;;;;;;;;28.00;22.25;;;;;4.66;66.00;100976.00;5062163;28;45374;-57
2023/01/20 02:13:40;;;;;;;;;25.00;21.00;;;;;4.64;66.18;100980.31;5062488;28;45249;-57
2023/01/20 02:16:30;;;;;;;;;23.00;21.75;;;;;4.64;65.63;100980.31;5062307;28;45300;-57
2023/01/20 02:19:01;;;;;;;;;30.75;23.75;;;;;4.62;65.83;100982.03;5061988;28;45193;-57
2023/01/20 02:22:08;;;;;;;;;29.25;25.50;;;;;4.59;65.71;100988.06;5062065;28;45567;-57
2023/01/20 02:25:02;;;;;;;;;27.50;23.75;;;;;4.56;65.94;100983.66;5061083;28;45478;-57
2023/01/20 02:28:02;;;;;;;;;27.25;23.00;;;;;4.54;65.81;100988.00;5068755;28;45303;-57
2023/01/20 02:30:52;;;;;;;;;29.50;24.50;;;;;4.51;65.95;100984.47;5061983;28;45185;-57
2023/01/20 02:33:42;;;;;;;;;25.00;23.25;;;;;4.50;65.89;100983.59;5061900;28;45555;-58
2023/01/20 02:36:14;;;;;;;;;27.25;23.50;;;;;4.46;65.56;100987.00;5062221;28;45251;-57
2023/01/20 02:39:00;;;;;;;;;21.50;17.25;;;;;4.46;65.68;100993.94;5062110;28;45409;-57
2023/01/20 02:41:40;;;;;;;;;27.75;23.75;;;;;4.39;65.39;100988.63;5053118;28;45422;-57
2023/01/20 02:44:43;;;;;;;;;37.25;23.00;;;;;4.39;65.61;101004.25;5061984;28;46504;-57
2023/01/20 02:47:18;;;;;;;;;29.50;23.00;;;;;4.35;66.06;100999.84;5055173;28;45272;-57
2023/01/20 02:50:10;;;;;;;;;26.00;22.00;;;;;4.35;65.67;101001.56;5061858;28;45305;-57
2023/01/20 02:52:40;;;;;;;;;27.75;22.75;;;;;4.32;65.90;101006.72;5060442;28;45855;-57
2023/01/20 02:55:10;;;;;;;;;23.50;18.50;;;;;4.32;65.60;101015.41;5061577;28;46379;-57
2023/01/20 02:57:44;;;;;;;;;33.50;26.25;;;;;4.31;65.89;101025.78;5061551;28;45302;-57
2023/01/20 03:00:25;;;;;;;;;27.00;21.50;;;;;4.30;65.94;101024.94;5061712;28;45384;-57
2023/01/20 03:02:55;;;;;;;;;24.00;22.25;;;;;4.30;66.04;101035.34;5060614;28;45330;-57
2023/01/20 03:05:27;;;;;;;;;31.75;24.00;;;;;4.31;65.65;101031.84;5061386;28;45258;-57
2023/01/20 03:07:54;;;;;;;;;30.50;24.25;;;;;4.31;65.91;101031.00;5061375;28;45515;-58
2023/01/20 03:10:24;;;;;;;;;24.50;21.50;;;;;4.32;65.67;101032.75;5060493;28;45324;-57
2023/01/20 03:13:13;;;;;;;;;31.50;23.25;;;;;4.32;65.64;101037.97;5061429;28;45560;-57
2023/01/20 03:15:54;;;;;;;;;29.25;25.75;;;;;4.29;65.84;101030.97;5060068;28;48631;-57
2023/01/20 03:18:20;;;;;;;;;28.00;23.75;;;;;4.32;66.19;101044.03;5061288;28;45280;-57
2023/01/20 03:20:45;;;;;;;;;32.25;25.50;;;;;4.32;65.91;101045.75;5061275;28;45303;-57
2023/01/20 03:23:10;;;;;;;;;33.50;27.25;;;;;4.32;66.04;101051.84;5060003;28;45320;-57
2023/01/20 03:25:38;;;;;;;;;29.50;24.00;;;;;4.33;65.98;101048.38;5076677;27;47198;-57
2023/01/20 03:28:03;;;;;;;;;24.75;24.25;;;;;4.33;65.82;101044.91;5068399;28;45456;-57
2023/01/20 03:30:29;;;;;;;;;33.75;26.75;;;;;4.34;65.82;101051.84;5061160;28;45310;-57
2023/01/20 03:32:55;;;;;;;;;36.75;31.75;;;;;4.32;66.06;101044.03;5060913;28;45351;-57
2023/01/20 03:35:21;;;;;;;;;27.75;27.50;;;;;4.35;65.57;101053.59;5060966;28;46224;-57
2023/01/20 03:37:46;;;;;;;;;29.75;26.50;;;;;4.35;65.84;101064.91;5061122;28;45229;-57
2023/01/20 03:40:14;;;;;;;;;32.75;25.00;;;;;4.36;65.98;101066.63;5060907;28;45231;-57
2023/01/20 03:42:48;;;;;;;;;29.25;27.25;;;;;4.37;65.94;101073.59;5060867;28;45409;-57
2023/01/20 03:45:27;;;;;;;;;27.00;23.75;;;;;4.37;65.91;101067.53;5059527;28;47613;-57
2023/01/20 03:47:55;;;;;;;;;42.50;34.25;;;;;4.36;65.68;101074.44;5059566;28;45382;-57
2023/01/20 03:50:56;;;;;;;;;42.00;36.75;;;;;4.34;65.90;101067.47;5060727;28;45231;-57
2023/01/20 03:53:29;;;;;;;;;33.50;25.00;;;;;4.29;66.35;101069.13;5060697;28;45455;-57
2023/01/20 03:56:23;;;;;;;;;39.50;30.75;;;;;4.27;66.10;101069.09;5060465;28;46772;-57
2023/01/20 03:58:52;;;;;;;;;33.50;25.50;;;;;4.26;66.06;101082.09;5058550;28;45181;-57
2023/01/20 04:01:22;;;;;;;;;38.25;32.00;;;;;4.22;65.62;101087.22;5060620;28;45337;-57
2023/01/20 04:03:51;;;;;;;;;36.25;32.75;;;;;4.20;66.15;101085.44;5060272;28;45359;-57
2023/01/20 04:06:20;;;;;;;;;34.75;31.50;;;;;4.20;66.19;101090.66;5060482;28;46257;-57
2023/01/20 04:08:57;;;;;;;;;33.00;31.75;;;;;4.18;65.84;101085.41;5059292;28;45359;-57
2023/01/20 04:11:23;;;;;;;;;27.25;22.75;;;;;4.20;65.73;101098.44;5060382;28;45503;-57
2023/01/20 04:13:49;;;;;;;;;32.00;24.00;;;;;4.19;65.82;101097.59;5060243;28;45367;-57
2023/01/20 04:16:17;;;;;;;;;36.25;32.25;;;;;4.17;65.80;101101.88;5060245;28;46383;-57
2023/01/20 04:18:46;;;;;;;;;23.50;23.50;;;;;4.19;65.96;101100.19;5060228;28;45382;-57
2023/01/20 04:21:21;;;;;;;;;25.75;21.50;;;;;4.15;65.93;101102.69;5060228;28;45271;-57
2023/01/20 04:24:28;;;;;;;;;35.50;29.25;;;;;4.13;66.02;101107.03;5060470;28;45206;-57
2023/01/20 04:26:53;;;;;;;;;31.50;26.50;;;;;4.12;66.09;101108.72;5066069;28;46241;-57
2023/01/20 04:29:18;;;;;;;;;32.75;26.25;;;;;4.09;65.75;101113.88;5061366;28;45285;-57
2023/01/20 04:31:44;;;;;;;;;28.25;24.00;;;;;4.05;65.79;101112.06;5060463;28;45182;-57
2023/01/20 04:34:12;;;;;;;;;28.75;23.50;;;;;4.04;66.11;101107.72;5059900;28;45227;-57
2023/01/20 04:36:37;;;;;;;;;35.75;28.25;;;;;4.04;65.73;101116.38;5060224;28;46062;-57
2023/01/20 04:39:03;;;;;;;;;29.50;26.75;;;;;4.03;65.87;101113.75;5059880;28;45352;-57
2023/01/20 04:41:28;;;;;;;;;27.75;23.75;;;;;3.98;66.27;101118.00;5060055;28;45395;-57
2023/01/20 04:43:53;;;;;;;;;31.75;26.75;;;;;4.01;66.11;101125.84;5060009;28;45390;-57
2023/01/20 04:46:19;;;;;;;;;33.25;30.00;;;;;4.00;66.08;101126.69;5059935;28;45594;-58
2023/01/20 04:48:45;;;;;;;;;27.50;23.00;;;;;3.97;65.82;101129.25;5059547;28;45394;-57
2023/01/20 04:51:10;;;;;;;;;31.00;26.00;;;;;3.97;66.52;101137.06;5060139;28;45267;-57
2023/01/20 04:53:36;;;;;;;;;28.25;23.75;;;;;3.96;66.20;101135.28;5059990;28;45244;-57
2023/01/20 04:56:01;;;;;;;;;34.25;30.00;;;;;3.96;65.80;101145.69;5059769;28;45343;-58
2023/01/20 04:58:26;;;;;;;;;25.50;20.75;;;;;3.90;65.89;101143.88;5059813;28;45449;-57
2023/01/20 05:00:52;;;;;;;;;32.25;26.50;;;;;3.90;65.97;101149.94;5059878;28;45232;-57
2023/01/20 05:03:17;;;;;;;;;30.75;27.50;;;;;3.88;66.07;101155.94;5059508;28;45399;-57
2023/01/20 05:05:42;;;;;;;;;26.50;16.25;;;;;3.90;66.11;101155.13;5059506;28;46274;-56
2023/01/20 05:08:08;;;;;;;;;37.50;23.75;;;;;3.90;65.89;101154.28;5059723;28;45417;-57
2023/01/20 05:10:34;;;;;;;;;40.75;30.25;;;;;3.85;65.85;101146.38;5059758;28;45352;-57
2023/01/20 05:13:00;;;;;;;;;28.00;25.50;;;;;3.88;66.00;101161.16;5059546;28;45283;-57
2023/01/20 05:15:26;;;;;;;;;32.50;27.25;;;;;3.85;65.78;101164.56;5059572;28;45471;-57
2023/01/20 05:17:52;;;;;;;;;21.00;19.00;;;;;3.83;65.83;101155.84;5058101;28;45336;-57
2023/01/20 05:20:19;;;;;;;;;29.50;25.50;;;;;3.82;65.76;101161.88;5059691;28;45343;-58
2023/01/20 05:22:45;;;;;;;;;29.25;25.75;;;;;3.80;66.17;101166.22;5059273;28;45310;-57
2023/01/20 05:25:10;;;;;;;;;26.00;22.50;;;;;3.78;66.19;101165.28;5061527;28;46494;-57
2023/01/20 05:27:36;;;;;;;;;27.00;23.25;;;;;3.76;66.10;101174.78;5069792;28;45219;-57
2023/01/20 05:30:05;;;;;;;;;28.75;20.50;;;;;3.72;66.13;101160.84;5062142;28;45348;-57
2023/01/20 05:32:31;;;;;;;;;33.75;19.00;;;;;3.74;65.81;101179.06;5062757;28;45546;-57
2023/01/20 05:34:56;;;;;;;;;30.75;23.50;;;;;3.72;65.94;101179.06;5063184;28;45370;-57
2023/01/20 05:37:22;;;;;;;;;20.25;16.00;;;;;3.70;66.28;101174.66;5062836;28;45438;-57
2023/01/20 05:39:47;;;;;;;;;18.75;17.75;;;;;3.72;65.92;101185.94;5063037;28;45492;-57
2023/01/20 05:42:12;;;;;;;;;24.50;21.75;;;;;3.70;65.80;101191.13;5062735;28;45338;-57
2023/01/20 05:44:38;;;;;;;;;31.25;25.75;;;;;3.67;66.12;101188.47;5062858;28;45565;-57
2023/01/20 05:47:03;;;;;;;;;23.00;20.50;;;;;3.66;65.92;101185.81;5062699;28;45492;-58
2023/01/20 05:49:28;;;;;;;;;21.00;18.50;;;;;3.66;66.42;101191.03;5062866;28;45454;-57
2023/01/20 05:51:54;;;;;;;;;27.50;20.75;;;;;3.61;65.99;101187.44;5062656;28;45236;-57
2023/01/20 05:54:19;;;;;;;;;30.75;25.00;;;;;3.60;66.14;101191.78;5062900;28;45307;-57
2023/01/20 05:56:47;;;;;;;;;23.25;19.50;;;;;3.58;65.98;101191.75;5062464;28;45407;-57
2023/01/20 05:59:12;;;;;;;;;18.25;15.25;;;;;3.59;66.26;101192.63;5062894;28;45236;-57
2023/01/20 06:01:37;;;;;;;;;19.00;16.50;;;;;3.57;66.35;101200.41;5060987;28;45738;-57
2023/01/20 06:04:03;;;;;;;;;24.00;21.25;;;;;3.53;66.25;101200.28;5062114;28;46180;-57
2023/01/20 06:06:28;;;;;;;;;27.75;24.75;;;;;3.52;66.30;101214.13;5062318;28;45240;-57
2023/01/20 06:08:53;;;;;;;;;26.00;24.00;;;;;3.48;66.20;101205.38;5062862;28;45213;-57
2023/01/20 06:11:19;;;;;;;;;25.25;23.25;;;;;3.45;66.01;101210.50;5062220;28;45537;-57
2023/01/20 06:13:48;;;;;;;;;22.75;20.50;;;;;3.46;66.25;101220.06;5062299;28;45232;-57
2023/01/20 06:16:15;;;;;;;;;27.75;21.00;;;;;3.42;66.26;101224.31;5060916;28;45370;-57
2023/01/20 06:18:40;;;;;;;;;30.50;28.50;;;;;3.42;66.27;101226.00;5060871;28;45317;-57
2023/01/20 06:21:06;;;;;;;;;28.00;23.75;;;;;3.42;66.25;101234.69;5062171;28;45232;-57
2023/01/20 06:23:32;;;;;;;;;27.00;21.00;;;;;3.39;66.42;101237.22;5060836;28;45258;-58
2023/01/20 06:25:59;;;;;;;;;29.50;22.75;;;;;3.38;66.41;101229.38;5062121;28;45256;-58
2023/01/20 06:28:25;;;;;;;;;31.00;23.75;;;;;3.33;66.27;101225.81;5069177;28;45283;-58
2023/01/20 06:30:50;;;;;;;;;34.25;26.75;;;;;3.31;66.48;101236.19;5060657;28;45534;-58
2023/01/20 06:33:15;;;;;;;;;31.25;26.50;;;;;3.24;66.46;101224.75;5061841;28;46168;-58
2023/01/20 06:35:40;;;;;;;;;26.00;22.25;;;;;3.22;66.06;101234.25;5062149;28;45339;-58
2023/01/20 06:38:06;;;;;;;;;23.50;19.75;;;;;3.25;66.00;101230.84;5062250;28;45232;-58
2023/01/20 06:40:31;;;;;;;;;26.00;21.75;;;;;3.20;66.08;101227.25;5061727;28;45456;-58
2023/01/20 06:42:57;;;;;;;;;34.25;25.50;;;;;3.15;66.23;101234.06;5061750;28;46286;-57
2023/01/20 06:45:23;;;;;;;;;25.75;17.50;;;;;3.11;66.24;101232.22;5061812;28;45280;-58
2023/01/20 06:47:49;;;;;;;;;28.50;24.75;;;;;3.08;66.04;101243.41;5061837;28;45364;-58
2023/01/20 06:50:15;;;;;;;;;32.00;26.75;;;;;3.04;66.30;101236.38;5061723;28;45256;-58
2023/01/20 06:52:40;;;;;;;;;25.75;24.00;;;;;3.00;65.93;101230.22;5061571;28;46068;-58
2023/01/20 06:55:06;;;;;;;;;37.75;28.75;;;;;2.91;66.29;101233.47;5061746;28;45223;-57
2023/01/20 06:57:32;;;;;;;;;33.00;27.00;;;;;2.88;66.21;101243.78;5061743;28;45358;-58
2023/01/20 06:59:58;;;;;;;;;32.50;27.25;;;;;2.91;66.28;101245.59;5061485;28;45391;-57
2023/01/20 07:02:23;;;;;;;;;32.25;26.50;;;;;2.88;66.41;101254.19;5061487;28;47216;-57
2023/01/20 07:04:51;;;;;;;;;36.75;32.25;;;;;2.85;66.33;101261.88;5061336;28;45170;-57
2023/01/20 07:07:16;;;;;;;;;28.00;25.50;;;;;2.80;66.45;101255.69;5061774;28;45445;-57
2023/01/20 07:09:41;;;;;;;;;33.75;29.75;;;;;2.81;66.13;101265.25;5061554;28;45248;-57
2023/01/20 07:12:07;;;;;;;;;37.00;32.25;;;;;2.81;66.66;101270.44;5061236;28;46266;-57
2023/01/20 07:14:32;;;;;;;;;39.25;32.25;;;;;2.83;66.53;101270.47;5061502;28;45228;-58
2023/01/20 07:16:57;;;;;;;;;33.50;28.75;;;;;2.79;66.54;101274.69;5061630;28;45418;-57
2023/01/20 07:19:23;;;;;;;;;42.50;31.50;;;;;2.73;66.23;101270.22;5060969;28;45387;-57
2023/01/20 07:21:48;;;;;;;;;40.50;33.25;;;;;2.74;66.31;101277.19;5059977;28;46970;-57
2023/01/20 07:24:13;;;;;;;;;55.75;39.75;;;;;2.73;66.60;101282.31;5061205;28;45256;-57
2023/01/20 07:26:39;;;;;;;;;32.50;31.75;;;;;2.73;66.26;101282.31;5065447;28;45315;-57
2023/01/20 07:29:04;;;;;;;;;44.25;37.50;;;;;2.73;66.55;101282.31;5064218;28;45597;-57
2023/01/20 07:31:30;;;;;;;;;40.50;35.50;;;;;2.73;66.21;101283.22;5061022;28;46797;-57
2023/01/20 07:33:56;;;;;;;;;34.75;32.00;;;;;2.74;66.48;101294.47;5059540;28;45836;-58
2023/01/20 07:36:21;;;;;;;;;33.00;29.50;;;;;2.69;66.70;101294.34;5061527;28;45295;-57
2023/01/20 07:38:49;;;;;;;;;36.25;32.50;;;;;2.70;66.25;101297.81;5059705;28;45415;-57
2023/01/20 07:41:15;;;;;;;;;35.75;33.25;;;;;2.69;66.39;101301.25;5059340;28;46171;-57
2023/01/20 07:43:44;;;;;;;;;49.50;39.00;;;;;2.71;66.47;101309.97;5060806;28;45212;-57
2023/01/20 07:46:10;;;;;;;;;49.00;38.50;;;;;2.71;66.37;101310.84;5061159;28;45315;-57
2023/01/20 07:48:35;;;;;;;;;42.25;34.25;;;;;2.68;66.14;101309.88;5059989;28;45284;-57
2023/01/20 07:51:06;;;;;;;;;40.00;36.00;;;;;2.67;66.82;101311.59;5060871;28;46312;-57
2023/01/20 07:53:33;;;;;;;;;40.75;33.00;;;;;2.66;66.74;101319.34;5060620;28;45434;-57
2023/01/20 07:56:00;;;;;;;;;38.00;32.00;;;;;2.63;66.86;101317.53;5060802;28;45478;-57
2023/01/20 07:58:27;;;;;;;;;39.00;33.50;;;;;2.59;66.79;101316.59;5059423;28;45268;-57
2023/01/20 08:00:52;;;;;;;;;38.50;32.25;;;;;2.59;66.47;101324.38;5060448;28;46255;-58
2023/01/20 08:03:18;;;;;;;;;38.50;29.75;;;;;2.60;66.80;101330.41;5060469;28;45319;-58
2023/01/20 08:05:43;;;;;;;;;34.25;31.75;;;;;2.61;66.47;101334.78;5059463;28;45238;-58
2023/01/20 08:08:08;;;;;;;;;30.50;27.50;;;;;2.62;66.82;101333.94;5060523;28;45362;-58
2023/01/20 08:10:34;;;;;;;;;35.75;30.00;;;;;2.62;66.73;101331.34;5060453;28;46019;-58
2023/01/20 08:12:59;;;;;;;;;39.50;33.75;;;;;2.66;66.84;101335.78;5060340;28;45255;-58
2023/01/20 08:15:24;;;;;;;;;35.00;25.75;;;;;2.57;66.62;101325.16;5060678;28;45575;-58
2023/01/20 08:17:54;;;;;;;;;33.50;25.25;;;;;2.71;66.52;101335.94;5060303;28;45398;-58
2023/01/20 08:20:20;;;;;;;;;30.25;26.50;;;;;2.70;66.43;101332.44;5060449;28;45343;-58
2023/01/20 08:22:45;;;;;;;;;46.25;33.25;;;;;2.76;66.25;101339.53;5060422;28;45272;-58
2023/01/20 08:25:10;;;;;;;;;40.25;32.25;;;;;2.79;66.61;101342.19;5060612;28;45279;-58
2023/01/20 08:27:36;;;;;;;;;27.50;27.50;;;;;2.80;66.55;101333.56;5067523;28;45346;-58
2023/01/20 08:30:01;;;;;;;;;37.75;29.00;;;;;2.81;66.67;101334.47;5059184;28;47155;-58
2023/01/20 08:32:28;;;;;;;;;31.50;28.75;;;;;2.80;66.89;101330.97;5060119;28;45301;-58
2023/01/20 08:34:53;;;;;;;;;38.00;33.75;;;;;2.81;66.47;101330.13;5060461;28;45182;-58
2023/01/20 08:37:19;;;;;;;;;31.50;29.25;;;;;2.78;66.79;101327.47;5060191;28;45272;-58
2023/01/20 08:39:44;;;;;;;;;36.25;29.25;;;;;2.84;66.88;101330.22;5059901;28;47044;-58
2023/01/20 08:42:10;;;;;;;;;38.00;30.75;;;;;2.86;66.80;101341.53;5060022;28;45149;-57
2023/01/20 08:44:35;;;;;;;;;35.25;29.75;;;;;2.87;66.71;101342.41;5060320;28;45264;-58
2023/01/20 08:47:02;;;;;;;;;36.00;33.50;;;;;2.87;66.45;101345.03;5060029;28;45387;-59
2023/01/20 08:49:28;;;;;;;;;23.25;21.25;;;;;2.88;66.42;101350.25;5059806;28;45357;-58
2023/01/20 08:51:55;;;;;;;;;40.00;29.75;;;;;2.91;66.60;101345.13;5059559;28;45402;-58
2023/01/20 08:54:21;;;;;;;;;36.50;33.25;;;;;2.96;66.91;101358.22;5060081;28;45413;-57
2023/01/20 08:56:49;;;;;;;;;28.75;25.00;;;;;2.96;66.93;101352.19;5059838;28;45316;-59
2023/01/20 08:59:15;;;;;;;;;31.00;25.00;;;;;3.01;66.46;101355.78;5060311;28;46832;-58
2023/01/20 09:01:43;;;;;;;;;29.50;24.25;;;;;3.00;66.66;101348.81;5063344;28;45403;-57
2023/01/20 09:04:09;;;;;;;;;12.00;7.00;;;;;3.05;66.89;101360.19;5061949;28;45346;-58
2023/01/20 09:06:40;;;;;;;;;41.25;34.75;;;;;3.02;67.06;101355.81;5063298;28;46194;-58
2023/01/20 09:09:05;;;;;;;;;35.50;31.00;;;;;3.05;66.60;101363.66;5062126;28;45494;-58
2023/01/20 09:11:31;;;;;;;;;34.25;27.50;;;;;3.08;66.51;101365.47;5063084;28;45344;-57
2023/01/20 09:13:56;;;;;;;;;36.25;33.75;;;;;3.08;66.59;101363.75;5063417;28;45473;-57
2023/01/20 09:16:23;;;;;;;;;34.25;30.00;;;;;3.13;67.08;101365.59;5063081;28;45331;-57
2023/01/20 09:18:48;;;;;;;;;33.50;28.00;;;;;3.13;66.94;101366.47;5061749;28;45475;-57
2023/01/20 09:21:14;;;;;;;;;34.25;29.25;;;;;3.16;66.56;101371.75;5062982;28;45397;-57
2023/01/20 09:23:41;;;;;;;;;35.75;30.50;;;;;3.20;66.69;101386.56;5063410;28;45294;-57
2023/01/20 09:26:07;;;;;;;;;38.25;32.75;;;;;3.24;66.34;101385.81;5061598;28;45462;-57
2023/01/20 09:28:34;;;;;;;;;35.50;31.00;;;;;3.29;66.51;101391.13;5068951;28;47569;-57
2023/01/20 09:31:04;;;;;;;;;31.25;29.00;;;;;3.32;66.89;101395.53;5062954;28;45245;-57
2023/01/20 09:33:31;;;;;;;;;38.00;30.50;;;;;3.34;66.55;101393.84;5062968;28;45453;-57
2023/01/20 09:35:57;;;;;;;;;37.00;30.00;;;;;3.38;66.70;101388.78;5061967;28;45288;-57
2023/01/20 09:44:22;;;;;;;;;24.50;21.00;;;;;3.57;66.56;101402.22;5063065;28;45304;-58
2023/01/20 09:47:18;;;;;;;;;32.75;28.75;;;;;3.63;66.90;101391.13;5061419;28;45560;-58
2023/01/20 09:52:59;;;;;;;;;27.25;26.00;;;;;3.82;66.63;101400.25;5062716;28;45267;-57
2023/01/20 09:55:40;;;;;;;;;36.25;33.50;;;;;3.88;66.77;101403.84;5062901;28;45422;-57
2023/01/20 09:58:21;;;;;;;;;38.25;32.25;;;;;3.96;66.74;101404.06;5062538;28;45392;-58
2023/01/20 10:01:05;;;;;;;;;29.75;27.00;;;;;4.04;66.45;101412.03;5061288;28;47253;-57
2023/01/20 10:03:49;;;;;;;;;27.75;27.00;;;;;4.11;66.66;101413.06;5062092;28;45422;-58
2023/01/20 10:06:32;;;;;;;;;30.25;24.75;;;;;4.20;66.73;101408.94;5061272;28;45271;-57
2023/01/20 10:09:08;;;;;;;;;26.75;24.25;;;;;4.28;66.76;101400.44;5061477;28;45258;-57
2023/01/20 10:11:40;;;;;;;;;19.50;16.50;;;;;4.33;66.54;101414.44;5061795;28;46215;-57
2023/01/20 10:14:22;;;;;;;;;18.00;17.00;;;;;4.39;66.58;101415.44;5062412;28;45279;-57
2023/01/20 10:17:03;;;;;;;;;20.75;18.75;;;;;4.48;66.59;101409.56;5061312;28;45369;-57
2023/01/20 10:19:52;;;;;;;;;24.50;17.25;;;;;4.53;66.67;101407.06;5062290;28;45303;-57
2023/01/20 10:22:31;;;;;;;;;25.25;22.75;;;;;4.60;67.13;101402.84;5060712;28;48094;-57
2023/01/20 10:25:21;;;;;;;;;16.75;14.75;;;;;4.67;66.75;101396.94;5061073;28;45272;-57
2023/01/20 10:27:55;;;;;;;;;18.50;12.75;;;;;4.73;66.77;101399.66;5069465;28;45347;-57
2023/01/20 10:30:25;;;;;;;;;17.25;12.75;;;;;4.77;66.32;101404.06;5062101;28;45427;-57
2023/01/20 10:33:08;;;;;;;;;17.75;15.50;;;;;4.86;66.66;101411.19;5060630;28;45334;-57
2023/01/20 10:35:38;;;;;;;;;16.25;15.50;;;;;4.90;66.25;101401.72;5061949;28;45310;-57
2023/01/20 10:38:18;;;;;;;;;20.75;18.00;;;;;4.94;66.65;101409.59;5061062;28;45531;-57
2023/01/20 10:40:51;;;;;;;;;22.00;17.75;;;;;5.02;66.93;101407.19;5061767;28;45454;-57
2023/01/20 10:43:18;;;;;;;;;17.00;13.50;;;;;4.98;66.59;101395.81;5061724;28;45397;-58
2023/01/20 10:45:58;;;;;;;;;16.00;13.00;;;;;5.14;66.63;101409.13;5062048;28;45370;-58
2023/01/20 10:48:54;;;;;;;;;19.00;13.50;;;;;5.21;66.79;101411.88;5061737;28;45293;-58
2023/01/20 10:51:34;;;;;;;;;15.50;13.00;;;;;5.26;66.96;101408.47;5061759;28;45497;-57
2023/01/20 10:54:20;;;;;;;;;18.00;13.00;;;;;5.32;66.58;101406.88;5061857;28;46201;-57
2023/01/20 10:56:52;;;;;;;;;11.75;11.75;;;;;5.34;66.58;101402.53;5060333;28;45499;-57
2023/01/20 10:59:33;;;;;;;;;8.00;8.00;;;;;5.45;66.61;101399.28;5060412;28;45371;-57
2023/01/20 11:02:12;;;;;;;;;10.75;8.75;;;;;5.48;66.37;101401.91;5061588;28;45213;-57
2023/01/20 11:04:38;;;;;;;;;10.75;9.00;;;;;5.52;66.30;101393.28;5061203;28;46356;-57
2023/01/20 11:07:07;;;;;;;;;10.00;7.50;;;;;5.58;66.33;101400.34;5061634;28;45366;-56
2023/01/20 11:09:36;;;;;;;;;8.50;8.50;;;;;5.63;66.40;101401.31;5061770;28;45247;-57
2023/01/20 11:12:09;;;;;;;;;10.25;7.75;;;;;5.67;65.90;101396.19;5060313;28;45360;-57
2023/01/20 11:14:34;;;;;;;;;15.50;12.50;;;;;5.81;66.10;101396.41;5061356;28;45493;-56
2023/01/20 11:17:04;;;;;;;;;7.75;7.75;;;;;5.86;66.32;101397.34;5061079;28;45357;-56
2023/01/20 11:19:45;;;;;;;;;9.50;9.25;;;;;5.97;66.17;101396.63;5061489;28;45321;-57
2023/01/20 11:22:19;;;;;;;;;9.25;9.00;;;;;6.05;66.26;101395.06;5058495;28;45595;-57
2023/01/20 11:24:45;;;;;;;;;10.75;7.00;;;;;6.13;66.19;101408.22;5061145;28;46285;-56
2023/01/20 11:27:15;;;;;;;;;9.25;8.00;;;;;6.21;66.06;101405.72;5066307;28;45368;-57
2023/01/20 11:29:45;;;;;;;;;10.00;8.75;;;;;6.28;65.92;101403.22;5061371;28;45302;-57
2023/01/20 11:32:26;;;;;;;;;8.75;8.50;;;;;6.37;65.96;101406.81;5060954;28;45497;-57
2023/01/20 11:34:52;;;;;;;;;12.75;10.00;;;;;6.45;65.78;101400.84;5061028;28;45283;-56
2023/01/20 11:37:21;;;;;;;;;9.25;5.50;;;;;6.53;65.73;101406.16;5061035;28;45221;-57